sensor_id;sensor_type;location;lat;lon;timestamp;P1;durP1;ratioP1;P2;durP2;ratioP2
18336;SDS011;9294;51.106;7.028;2023-10-08T00:01:07;3.58;;;3.38;;
18336;SDS011;9294;51.106;7.028;2023-10-08T00:03:37;3.92;;;3.67;;
18336;SDS011;9294;51.106;7.028;2023-10-08T00:06:05;3.55;;;3.35;;
18336;SDS011;9294;51.106;7.028;2023-10-08T00:08:39;4.35;;;4.05;;
18336;SDS011;9294;51.106;7.028;2023-10-08T00:11:06;3.70;;;3.45;;
18336;SDS011;9294;51.106;7.028;2023-10-08T00:13:36;3.40;;;3.20;;
18336;SDS011;9294;51.106;7.028;2023-10-08T00:16:06;4.22;;;3.70;;
18336;SDS011;9294;51.106;7.028;2023-10-08T00:18:36;4.00;;;3.70;;
18336;SDS011;9294;51.106;7.028;2023-10-08T00:21:04;4.30;;;3.90;;
18336;SDS011;9294;51.106;7.028;2023-10-08T00:23:42;3.75;;;3.55;;
18336;SDS011;9294;51.106;7.028;2023-10-08T00:26:17;3.33;;;3.13;;
18336;SDS011;9294;51.106;7.028;2023-10-08T00:28:53;3.97;;;3.67;;
18336;SDS011;9294;51.106;7.028;2023-10-08T00:31:20;4.20;;;3.90;;
18336;SDS011;9294;51.106;7.028;2023-10-08T00:33:51;4.07;;;3.78;;
18336;SDS011;9294;51.106;7.028;2023-10-08T00:36:18;4.35;;;4.05;;
18336;SDS011;9294;51.106;7.028;2023-10-08T00:38:45;4.30;;;4.00;;
18336;SDS011;9294;51.106;7.028;2023-10-08T00:41:15;3.55;;;3.35;;
18336;SDS011;9294;51.106;7.028;2023-10-08T00:43:46;3.70;;;3.50;;
18336;SDS011;9294;51.106;7.028;2023-10-08T00:46:15;4.18;;;3.88;;
18336;SDS011;9294;51.106;7.028;2023-10-08T00:48:48;3.63;;;3.42;;
18336;SDS011;9294;51.106;7.028;2023-10-08T00:51:17;3.53;;;3.30;;
18336;SDS011;9294;51.106;7.028;2023-10-08T00:53:52;3.78;;;3.47;;
18336;SDS011;9294;51.106;7.028;2023-10-08T00:56:22;3.63;;;3.42;;
18336;SDS011;9294;51.106;7.028;2023-10-08T00:58:50;3.83;;;3.63;;
18336;SDS011;9294;51.106;7.028;2023-10-08T01:01:20;4.22;;;3.92;;
18336;SDS011;9294;51.106;7.028;2023-10-08T01:03:48;3.90;;;3.60;;
18336;SDS011;9294;51.106;7.028;2023-10-08T01:06:15;3.88;;;3.58;;
18336;SDS011;9294;51.106;7.028;2023-10-08T01:08:45;3.70;;;3.50;;
18336;SDS011;9294;51.106;7.028;2023-10-08T01:11:17;3.65;;;3.30;;
18336;SDS011;9294;51.106;7.028;2023-10-08T01:13:45;3.63;;;3.40;;
18336;SDS011;9294;51.106;7.028;2023-10-08T01:16:14;3.38;;;3.17;;
18336;SDS011;9294;51.106;7.028;2023-10-08T01:18:44;3.95;;;3.72;;
18336;SDS011;9294;51.106;7.028;2023-10-08T01:21:16;4.10;;;3.83;;
18336;SDS011;9294;51.106;7.028;2023-10-08T01:23:58;3.70;;;3.40;;
18336;SDS011;9294;51.106;7.028;2023-10-08T01:26:27;3.28;;;3.08;;
18336;SDS011;9294;51.106;7.028;2023-10-08T01:28:56;3.72;;;3.42;;
18336;SDS011;9294;51.106;7.028;2023-10-08T01:31:27;3.85;;;3.60;;
18336;SDS011;9294;51.106;7.028;2023-10-08T01:33:54;3.60;;;3.30;;
18336;SDS011;9294;51.106;7.028;2023-10-08T01:36:22;4.03;;;3.72;;
18336;SDS011;9294;51.106;7.028;2023-10-08T01:38:50;4.07;;;3.78;;
18336;SDS011;9294;51.106;7.028;2023-10-08T01:41:20;3.67;;;3.47;;
18336;SDS011;9294;51.106;7.028;2023-10-08T01:43:55;3.67;;;3.38;;
18336;SDS011;9294;51.106;7.028;2023-10-08T01:46:23;3.60;;;3.40;;
18336;SDS011;9294;51.106;7.028;2023-10-08T01:48:51;3.80;;;3.60;;
18336;SDS011;9294;51.106;7.028;2023-10-08T01:51:28;3.53;;;3.33;;
18336;SDS011;9294;51.106;7.028;2023-10-08T01:54:03;3.70;;;3.40;;
18336;SDS011;9294;51.106;7.028;2023-10-08T01:56:38;3.40;;;3.10;;
18336;SDS011;9294;51.106;7.028;2023-10-08T01:59:06;3.60;;;3.40;;
18336;SDS011;9294;51.106;7.028;2023-10-08T02:01:35;3.55;;;3.35;;
18336;SDS011;9294;51.106;7.028;2023-10-08T02:04:04;3.80;;;3.50;;
18336;SDS011;9294;51.106;7.028;2023-10-08T02:06:32;3.40;;;3.20;;
18336;SDS011;9294;51.106;7.028;2023-10-08T02:09:00;3.63;;;3.38;;
18336;SDS011;9294;51.106;7.028;2023-10-08T02:11:41;3.33;;;3.13;;
18336;SDS011;9294;51.106;7.028;2023-10-08T02:14:08;3.42;;;3.22;;
18336;SDS011;9294;51.106;7.028;2023-10-08T02:16:36;4.00;;;3.70;;
18336;SDS011;9294;51.106;7.028;2023-10-08T02:19:03;3.10;;;2.90;;
18336;SDS011;9294;51.106;7.028;2023-10-08T02:21:31;3.85;;;3.47;;
18336;SDS011;9294;51.106;7.028;2023-10-08T02:23:59;3.05;;;2.85;;
18336;SDS011;9294;51.106;7.028;2023-10-08T02:26:28;3.95;;;3.65;;
18336;SDS011;9294;51.106;7.028;2023-10-08T02:28:57;3.90;;;3.70;;
18336;SDS011;9294;51.106;7.028;2023-10-08T02:31:24;3.85;;;3.55;;
18336;SDS011;9294;51.106;7.028;2023-10-08T02:33:53;3.42;;;3.22;;
18336;SDS011;9294;51.106;7.028;2023-10-08T02:36:20;3.22;;;3.03;;
18336;SDS011;9294;51.106;7.028;2023-10-08T02:38:47;2.80;;;2.70;;
18336;SDS011;9294;51.106;7.028;2023-10-08T02:41:15;3.38;;;3.17;;
18336;SDS011;9294;51.106;7.028;2023-10-08T02:43:42;2.97;;;2.78;;
18336;SDS011;9294;51.106;7.028;2023-10-08T02:46:11;3.47;;;3.28;;
18336;SDS011;9294;51.106;7.028;2023-10-08T02:48:40;3.50;;;3.30;;
18336;SDS011;9294;51.106;7.028;2023-10-08T02:51:07;3.50;;;3.28;;
18336;SDS011;9294;51.106;7.028;2023-10-08T02:53:39;3.17;;;2.97;;
18336;SDS011;9294;51.106;7.028;2023-10-08T02:56:08;3.22;;;3.03;;
18336;SDS011;9294;51.106;7.028;2023-10-08T02:58:39;3.38;;;3.10;;
18336;SDS011;9294;51.106;7.028;2023-10-08T03:01:07;3.30;;;3.10;;
18336;SDS011;9294;51.106;7.028;2023-10-08T03:03:38;3.00;;;2.80;;
18336;SDS011;9294;51.106;7.028;2023-10-08T03:06:07;3.40;;;3.20;;
18336;SDS011;9294;51.106;7.028;2023-10-08T03:08:36;2.85;;;2.70;;
18336;SDS011;9294;51.106;7.028;2023-10-08T03:11:05;3.63;;;3.42;;
18336;SDS011;9294;51.106;7.028;2023-10-08T03:13:32;3.67;;;3.40;;
18336;SDS011;9294;51.106;7.028;2023-10-08T03:16:03;3.35;;;3.15;;
18336;SDS011;9294;51.106;7.028;2023-10-08T03:18:34;3.08;;;2.97;;
18336;SDS011;9294;51.106;7.028;2023-10-08T03:21:03;3.40;;;3.20;;
18336;SDS011;9294;51.106;7.028;2023-10-08T03:23:44;2.75;;;2.55;;
18336;SDS011;9294;51.106;7.028;2023-10-08T03:26:13;3.22;;;3.03;;
18336;SDS011;9294;51.106;7.028;2023-10-08T03:28:58;3.60;;;3.40;;
18336;SDS011;9294;51.106;7.028;2023-10-08T03:31:25;3.45;;;3.25;;
18336;SDS011;9294;51.106;7.028;2023-10-08T03:34:10;3.60;;;3.40;;
18336;SDS011;9294;51.106;7.028;2023-10-08T03:36:41;3.35;;;3.15;;
18336;SDS011;9294;51.106;7.028;2023-10-08T03:39:10;3.35;;;3.15;;
18336;SDS011;9294;51.106;7.028;2023-10-08T03:41:38;3.03;;;2.83;;
18336;SDS011;9294;51.106;7.028;2023-10-08T03:44:06;2.97;;;2.78;;
18336;SDS011;9294;51.106;7.028;2023-10-08T03:46:38;3.08;;;2.88;;
18336;SDS011;9294;51.106;7.028;2023-10-08T03:49:07;3.03;;;2.83;;
18336;SDS011;9294;51.106;7.028;2023-10-08T03:51:42;2.95;;;2.85;;
18336;SDS011;9294;51.106;7.028;2023-10-08T03:54:09;3.28;;;3.08;;
18336;SDS011;9294;51.106;7.028;2023-10-08T03:56:42;3.22;;;3.13;;
18336;SDS011;9294;51.106;7.028;2023-10-08T03:59:14;3.10;;;2.92;;
18336;SDS011;9294;51.106;7.028;2023-10-08T04:01:55;3.40;;;3.20;;
18336;SDS011;9294;51.106;7.028;2023-10-08T04:04:24;3.80;;;3.60;;
18336;SDS011;9294;51.106;7.028;2023-10-08T04:07:13;3.22;;;2.97;;
18336;SDS011;9294;51.106;7.028;2023-10-08T04:09:53;3.10;;;2.90;;
18336;SDS011;9294;51.106;7.028;2023-10-08T04:12:30;3.05;;;2.90;;
18336;SDS011;9294;51.106;7.028;2023-10-08T04:14:59;3.33;;;3.13;;
18336;SDS011;9294;51.106;7.028;2023-10-08T04:17:26;2.97;;;2.78;;
18336;SDS011;9294;51.106;7.028;2023-10-08T04:19:55;3.20;;;3.00;;
18336;SDS011;9294;51.106;7.028;2023-10-08T04:22:24;3.15;;;2.95;;
18336;SDS011;9294;51.106;7.028;2023-10-08T04:24:51;3.30;;;3.10;;
18336;SDS011;9294;51.106;7.028;2023-10-08T04:27:19;3.17;;;2.97;;
18336;SDS011;9294;51.106;7.028;2023-10-08T04:29:47;3.33;;;3.13;;
18336;SDS011;9294;51.106;7.028;2023-10-08T04:32:15;3.38;;;3.17;;
18336;SDS011;9294;51.106;7.028;2023-10-08T04:34:49;3.00;;;2.90;;
18336;SDS011;9294;51.106;7.028;2023-10-08T04:37:21;3.05;;;2.88;;
18336;SDS011;9294;51.106;7.028;2023-10-08T04:39:58;3.60;;;3.40;;
18336;SDS011;9294;51.106;7.028;2023-10-08T04:42:26;3.47;;;3.28;;
18336;SDS011;9294;51.106;7.028;2023-10-08T04:44:53;3.92;;;3.72;;
18336;SDS011;9294;51.106;7.028;2023-10-08T04:47:20;2.67;;;2.58;;
18336;SDS011;9294;51.106;7.028;2023-10-08T04:49:57;2.72;;;2.63;;
18336;SDS011;9294;51.106;7.028;2023-10-08T04:52:24;3.15;;;2.97;;
18336;SDS011;9294;51.106;7.028;2023-10-08T04:54:52;3.20;;;3.00;;
18336;SDS011;9294;51.106;7.028;2023-10-08T04:57:22;2.80;;;2.70;;
18336;SDS011;9294;51.106;7.028;2023-10-08T04:59:51;3.20;;;3.00;;
18336;SDS011;9294;51.106;7.028;2023-10-08T05:02:22;2.95;;;2.85;;
18336;SDS011;9294;51.106;7.028;2023-10-08T05:04:59;3.17;;;2.97;;
18336;SDS011;9294;51.106;7.028;2023-10-08T05:07:47;3.10;;;2.90;;
18336;SDS011;9294;51.106;7.028;2023-10-08T05:10:42;3.40;;;3.20;;
18336;SDS011;9294;51.106;7.028;2023-10-08T05:13:43;2.63;;;2.53;;
18336;SDS011;9294;51.106;7.028;2023-10-08T05:16:27;3.42;;;3.13;;
18336;SDS011;9294;51.106;7.028;2023-10-08T05:19:11;3.15;;;2.95;;
18336;SDS011;9294;51.106;7.028;2023-10-08T05:22:02;3.25;;;3.05;;
18336;SDS011;9294;51.106;7.028;2023-10-08T05:24:43;2.80;;;2.65;;
18336;SDS011;9294;51.106;7.028;2023-10-08T05:27:30;3.30;;;3.10;;
18336;SDS011;9294;51.106;7.028;2023-10-08T05:30:18;3.22;;;3.00;;
18336;SDS011;9294;51.106;7.028;2023-10-08T05:32:53;3.38;;;3.17;;
18336;SDS011;9294;51.106;7.028;2023-10-08T05:35:37;3.30;;;3.05;;
18336;SDS011;9294;51.106;7.028;2023-10-08T05:38:15;2.85;;;2.75;;
18336;SDS011;9294;51.106;7.028;2023-10-08T05:40:47;3.35;;;3.15;;
18336;SDS011;9294;51.106;7.028;2023-10-08T05:43:42;2.78;;;2.58;;
18336;SDS011;9294;51.106;7.028;2023-10-08T05:46:22;2.90;;;2.70;;
18336;SDS011;9294;51.106;7.028;2023-10-08T05:49:06;3.15;;;3.03;;
18336;SDS011;9294;51.106;7.028;2023-10-08T05:52:03;3.50;;;3.08;;
18336;SDS011;9294;51.106;7.028;2023-10-08T05:54:53;3.92;;;2.75;;
18336;SDS011;9294;51.106;7.028;2023-10-08T05:57:37;3.33;;;3.08;;
18336;SDS011;9294;51.106;7.028;2023-10-08T06:00:06;5.65;;;3.55;;
18336;SDS011;9294;51.106;7.028;2023-10-08T06:02:52;3.38;;;3.05;;
18336;SDS011;9294;51.106;7.028;2023-10-08T06:05:42;3.42;;;3.22;;
18336;SDS011;9294;51.106;7.028;2023-10-08T06:08:12;3.83;;;2.63;;
18336;SDS011;9294;51.106;7.028;2023-10-08T06:10:40;3.63;;;3.33;;
18336;SDS011;9294;51.106;7.028;2023-10-08T06:13:21;3.55;;;3.25;;
18336;SDS011;9294;51.106;7.028;2023-10-08T06:16:10;3.15;;;2.95;;
18336;SDS011;9294;51.106;7.028;2023-10-08T06:18:57;2.92;;;2.72;;
18336;SDS011;9294;51.106;7.028;2023-10-08T06:21:23;4.60;;;3.05;;
18336;SDS011;9294;51.106;7.028;2023-10-08T06:23:51;4.22;;;3.17;;
18336;SDS011;9294;51.106;7.028;2023-10-08T06:26:21;3.70;;;3.30;;
18336;SDS011;9294;51.106;7.028;2023-10-08T06:28:50;3.70;;;3.45;;
18336;SDS011;9294;51.106;7.028;2023-10-08T06:31:22;3.40;;;3.20;;
18336;SDS011;9294;51.106;7.028;2023-10-08T06:33:50;2.92;;;2.78;;
18336;SDS011;9294;51.106;7.028;2023-10-08T06:36:19;3.25;;;2.95;;
18336;SDS011;9294;51.106;7.028;2023-10-08T06:38:49;8.63;;;3.95;;
18336;SDS011;9294;51.106;7.028;2023-10-08T06:41:16;4.97;;;3.45;;
18336;SDS011;9294;51.106;7.028;2023-10-08T06:43:44;5.90;;;3.53;;
18336;SDS011;9294;51.106;7.028;2023-10-08T06:46:13;2.90;;;2.70;;
18336;SDS011;9294;51.106;7.028;2023-10-08T06:48:40;4.10;;;3.67;;
18336;SDS011;9294;51.106;7.028;2023-10-08T06:51:08;5.18;;;2.97;;
18336;SDS011;9294;51.106;7.028;2023-10-08T06:53:39;3.60;;;3.30;;
18336;SDS011;9294;51.106;7.028;2023-10-08T06:56:06;3.67;;;3.38;;
18336;SDS011;9294;51.106;7.028;2023-10-08T06:58:36;7.55;;;4.05;;
18336;SDS011;9294;51.106;7.028;2023-10-08T07:01:03;3.60;;;3.30;;
18336;SDS011;9294;51.106;7.028;2023-10-08T07:03:33;5.05;;;2.92;;
18336;SDS011;9294;51.106;7.028;2023-10-08T07:06:00;4.28;;;3.55;;
18336;SDS011;9294;51.106;7.028;2023-10-08T07:08:35;4.18;;;3.20;;
18336;SDS011;9294;51.106;7.028;2023-10-08T07:11:04;6.85;;;3.72;;
18336;SDS011;9294;51.106;7.028;2023-10-08T07:13:36;6.53;;;4.13;;
18336;SDS011;9294;51.106;7.028;2023-10-08T07:16:04;3.65;;;3.30;;
18336;SDS011;9294;51.106;7.028;2023-10-08T07:18:36;3.67;;;3.20;;
18336;SDS011;9294;51.106;7.028;2023-10-08T07:21:03;3.88;;;3.28;;
18336;SDS011;9294;51.106;7.028;2023-10-08T07:23:37;3.35;;;3.05;;
18336;SDS011;9294;51.106;7.028;2023-10-08T07:26:22;4.55;;;3.42;;
18336;SDS011;9294;51.106;7.028;2023-10-08T07:28:50;4.18;;;2.88;;
18336;SDS011;9294;51.106;7.028;2023-10-08T07:31:18;7.43;;;3.80;;
18336;SDS011;9294;51.106;7.028;2023-10-08T07:33:46;4.55;;;3.40;;
18336;SDS011;9294;51.106;7.028;2023-10-08T07:36:20;4.90;;;3.53;;
18336;SDS011;9294;51.106;7.028;2023-10-08T07:38:47;3.45;;;3.25;;
18336;SDS011;9294;51.106;7.028;2023-10-08T07:41:15;4.32;;;3.30;;
18336;SDS011;9294;51.106;7.028;2023-10-08T07:43:46;3.92;;;3.40;;
18336;SDS011;9294;51.106;7.028;2023-10-08T07:46:20;4.85;;;3.60;;
18336;SDS011;9294;51.106;7.028;2023-10-08T07:48:47;3.45;;;3.10;;
18336;SDS011;9294;51.106;7.028;2023-10-08T07:51:15;3.95;;;3.50;;
18336;SDS011;9294;51.106;7.028;2023-10-08T07:53:47;3.92;;;3.53;;
18336;SDS011;9294;51.106;7.028;2023-10-08T07:56:14;3.72;;;3.42;;
18336;SDS011;9294;51.106;7.028;2023-10-08T07:58:43;5.25;;;3.45;;
18336;SDS011;9294;51.106;7.028;2023-10-08T08:01:11;7.57;;;4.05;;
18336;SDS011;9294;51.106;7.028;2023-10-08T08:03:39;3.70;;;3.20;;
18336;SDS011;9294;51.106;7.028;2023-10-08T08:06:07;5.97;;;3.47;;
18336;SDS011;9294;51.106;7.028;2023-10-08T08:08:34;3.92;;;3.63;;
18336;SDS011;9294;51.106;7.028;2023-10-08T08:11:01;3.40;;;3.08;;
18336;SDS011;9294;51.106;7.028;2023-10-08T08:13:37;5.18;;;3.55;;
18336;SDS011;9294;51.106;7.028;2023-10-08T08:16:07;5.72;;;3.50;;
18336;SDS011;9294;51.106;7.028;2023-10-08T08:18:44;5.38;;;3.78;;
18336;SDS011;9294;51.106;7.028;2023-10-08T08:21:11;10.40;;;3.75;;
18336;SDS011;9294;51.106;7.028;2023-10-08T08:23:41;6.45;;;3.40;;
18336;SDS011;9294;51.106;7.028;2023-10-08T08:26:12;6.55;;;3.63;;
18336;SDS011;9294;51.106;7.028;2023-10-08T08:28:51;5.57;;;3.58;;
18336;SDS011;9294;51.106;7.028;2023-10-08T08:31:19;4.07;;;3.60;;
18336;SDS011;9294;51.106;7.028;2023-10-08T08:33:48;5.65;;;3.50;;
18336;SDS011;9294;51.106;7.028;2023-10-08T08:36:27;8.18;;;3.78;;
18336;SDS011;9294;51.106;7.028;2023-10-08T08:38:55;4.72;;;4.22;;
18336;SDS011;9294;51.106;7.028;2023-10-08T08:41:23;7.45;;;3.97;;
18336;SDS011;9294;51.106;7.028;2023-10-08T08:43:51;5.15;;;4.05;;
18336;SDS011;9294;51.106;7.028;2023-10-08T08:46:30;4.72;;;3.60;;
18336;SDS011;9294;51.106;7.028;2023-10-08T08:49:02;14.43;;;4.40;;
18336;SDS011;9294;51.106;7.028;2023-10-08T08:51:30;6.10;;;3.90;;
18336;SDS011;9294;51.106;7.028;2023-10-08T08:53:57;5.30;;;4.13;;
18336;SDS011;9294;51.106;7.028;2023-10-08T08:56:25;6.53;;;3.53;;
18336;SDS011;9294;51.106;7.028;2023-10-08T08:58:53;5.13;;;3.60;;
18336;SDS011;9294;51.106;7.028;2023-10-08T09:01:20;6.43;;;3.90;;
18336;SDS011;9294;51.106;7.028;2023-10-08T09:03:48;4.03;;;3.65;;
18336;SDS011;9294;51.106;7.028;2023-10-08T09:06:16;4.75;;;4.25;;
18336;SDS011;9294;51.106;7.028;2023-10-08T09:08:44;5.40;;;3.95;;
18336;SDS011;9294;51.106;7.028;2023-10-08T09:11:15;7.10;;;4.38;;
18336;SDS011;9294;51.106;7.028;2023-10-08T09:13:42;6.38;;;4.32;;
18336;SDS011;9294;51.106;7.028;2023-10-08T09:16:11;6.30;;;3.80;;
18336;SDS011;9294;51.106;7.028;2023-10-08T09:18:38;11.65;;;4.47;;
18336;SDS011;9294;51.106;7.028;2023-10-08T09:21:08;5.28;;;4.13;;
18336;SDS011;9294;51.106;7.028;2023-10-08T09:23:39;5.85;;;3.85;;
18336;SDS011;9294;51.106;7.028;2023-10-08T09:26:09;5.18;;;4.68;;
18336;SDS011;9294;51.106;7.028;2023-10-08T09:28:38;6.72;;;4.60;;
18336;SDS011;9294;51.106;7.028;2023-10-08T09:31:06;5.07;;;3.90;;
18336;SDS011;9294;51.106;7.028;2023-10-08T09:33:36;6.40;;;4.10;;
18336;SDS011;9294;51.106;7.028;2023-10-08T09:36:04;8.52;;;4.18;;
18336;SDS011;9294;51.106;7.028;2023-10-08T09:38:32;5.20;;;4.63;;
18336;SDS011;9294;51.106;7.028;2023-10-08T09:41:01;4.50;;;3.97;;
18336;SDS011;9294;51.106;7.028;2023-10-08T09:43:28;5.20;;;3.83;;
18336;SDS011;9294;51.106;7.028;2023-10-08T09:45:59;4.93;;;4.43;;
18336;SDS011;9294;51.106;7.028;2023-10-08T09:48:30;6.70;;;3.80;;
18336;SDS011;9294;51.106;7.028;2023-10-08T09:50:58;8.85;;;5.28;;
18336;SDS011;9294;51.106;7.028;2023-10-08T09:53:26;8.52;;;5.22;;
18336;SDS011;9294;51.106;7.028;2023-10-08T09:55:56;7.50;;;6.00;;
18336;SDS011;9294;51.106;7.028;2023-10-08T09:58:25;15.93;;;8.35;;
18336;SDS011;9294;51.106;7.028;2023-10-08T10:00:54;20.17;;;12.35;;
18336;SDS011;9294;51.106;7.028;2023-10-08T10:03:22;20.23;;;11.77;;
18336;SDS011;9294;51.106;7.028;2023-10-08T10:05:51;24.67;;;14.25;;
18336;SDS011;9294;51.106;7.028;2023-10-08T10:08:23;21.23;;;14.80;;
18336;SDS011;9294;51.106;7.028;2023-10-08T10:10:57;29.42;;;15.43;;
18336;SDS011;9294;51.106;7.028;2023-10-08T10:13:28;30.30;;;16.75;;
18336;SDS011;9294;51.106;7.028;2023-10-08T10:15:56;30.55;;;18.25;;
18336;SDS011;9294;51.106;7.028;2023-10-08T10:18:27;29.90;;;18.63;;
18336;SDS011;9294;51.106;7.028;2023-10-08T10:20:57;28.40;;;18.67;;
18336;SDS011;9294;51.106;7.028;2023-10-08T10:23:35;29.70;;;18.92;;
18336;SDS011;9294;51.106;7.028;2023-10-08T10:26:02;34.53;;;19.98;;
18336;SDS011;9294;51.106;7.028;2023-10-08T10:28:31;33.92;;;21.77;;
18336;SDS011;9294;51.106;7.028;2023-10-08T10:30:58;32.10;;;19.83;;
18336;SDS011;9294;51.106;7.028;2023-10-08T10:33:34;33.70;;;20.95;;
18336;SDS011;9294;51.106;7.028;2023-10-08T10:36:05;34.50;;;20.42;;
18336;SDS011;9294;51.106;7.028;2023-10-08T10:38:33;32.30;;;18.85;;
18336;SDS011;9294;51.106;7.028;2023-10-08T10:41:03;32.70;;;19.10;;
18336;SDS011;9294;51.106;7.028;2023-10-08T10:43:35;26.27;;;18.25;;
18336;SDS011;9294;51.106;7.028;2023-10-08T10:46:05;33.83;;;17.95;;
18336;SDS011;9294;51.106;7.028;2023-10-08T10:48:54;29.77;;;17.33;;
18336;SDS011;9294;51.106;7.028;2023-10-08T10:51:30;25.88;;;15.98;;
18336;SDS011;9294;51.106;7.028;2023-10-08T10:53:59;26.73;;;16.80;;
18336;SDS011;9294;51.106;7.028;2023-10-08T10:56:32;25.75;;;15.85;;
18336;SDS011;9294;51.106;7.028;2023-10-08T10:59:07;23.40;;;14.68;;
18336;SDS011;9294;51.106;7.028;2023-10-08T11:01:41;24.02;;;14.57;;
18336;SDS011;9294;51.106;7.028;2023-10-08T11:04:11;23.45;;;15.57;;
18336;SDS011;9294;51.106;7.028;2023-10-08T11:06:41;19.48;;;14.02;;
18336;SDS011;9294;51.106;7.028;2023-10-08T11:09:09;18.20;;;12.77;;
18336;SDS011;9294;51.106;7.028;2023-10-08T11:11:41;21.45;;;13.60;;
18336;SDS011;9294;51.106;7.028;2023-10-08T11:14:10;20.88;;;13.93;;
18336;SDS011;9294;51.106;7.028;2023-10-08T11:16:42;21.55;;;13.27;;
18336;SDS011;9294;51.106;7.028;2023-10-08T11:19:10;15.70;;;11.68;;
18336;SDS011;9294;51.106;7.028;2023-10-08T11:21:49;18.83;;;13.18;;
18336;SDS011;9294;51.106;7.028;2023-10-08T11:24:28;19.13;;;11.80;;
18336;SDS011;9294;51.106;7.028;2023-10-08T11:26:58;18.65;;;12.25;;
18336;SDS011;9294;51.106;7.028;2023-10-08T11:29:42;23.88;;;11.48;;
18336;SDS011;9294;51.106;7.028;2023-10-08T11:32:11;18.45;;;10.75;;
18336;SDS011;9294;51.106;7.028;2023-10-08T11:34:40;17.23;;;10.73;;
18336;SDS011;9294;51.106;7.028;2023-10-08T11:37:08;20.38;;;11.10;;
18336;SDS011;9294;51.106;7.028;2023-10-08T11:39:45;21.42;;;9.82;;
18336;SDS011;9294;51.106;7.028;2023-10-08T11:42:13;18.23;;;11.32;;
18336;SDS011;9294;51.106;7.028;2023-10-08T11:45:07;15.40;;;10.48;;
18336;SDS011;9294;51.106;7.028;2023-10-08T11:47:50;14.30;;;9.73;;
18336;SDS011;9294;51.106;7.028;2023-10-08T11:50:24;16.63;;;9.65;;
18336;SDS011;9294;51.106;7.028;2023-10-08T11:52:57;16.45;;;10.05;;
18336;SDS011;9294;51.106;7.028;2023-10-08T11:55:27;18.02;;;10.05;;
18336;SDS011;9294;51.106;7.028;2023-10-08T11:57:54;14.27;;;9.25;;
18336;SDS011;9294;51.106;7.028;2023-10-08T12:00:23;13.18;;;9.52;;
18336;SDS011;9294;51.106;7.028;2023-10-08T12:02:51;12.57;;;8.80;;
18336;SDS011;9294;51.106;7.028;2023-10-08T12:05:20;13.55;;;9.32;;
18336;SDS011;9294;51.106;7.028;2023-10-08T12:07:50;14.07;;;8.70;;
18336;SDS011;9294;51.106;7.028;2023-10-08T12:10:17;15.23;;;8.23;;
18336;SDS011;9294;51.106;7.028;2023-10-08T12:12:48;12.55;;;8.35;;
18336;SDS011;9294;51.106;7.028;2023-10-08T12:15:17;13.40;;;8.10;;
18336;SDS011;9294;51.106;7.028;2023-10-08T12:17:47;12.13;;;8.90;;
18336;SDS011;9294;51.106;7.028;2023-10-08T12:20:34;11.00;;;7.95;;
18336;SDS011;9294;51.106;7.028;2023-10-08T12:23:02;13.38;;;8.88;;
18336;SDS011;9294;51.106;7.028;2023-10-08T12:25:29;12.20;;;8.07;;
18336;SDS011;9294;51.106;7.028;2023-10-08T12:27:57;9.45;;;7.60;;
18336;SDS011;9294;51.106;7.028;2023-10-08T12:30:27;12.02;;;8.63;;
18336;SDS011;9294;51.106;7.028;2023-10-08T12:32:57;8.90;;;7.20;;
18336;SDS011;9294;51.106;7.028;2023-10-08T12:35:25;10.07;;;7.72;;
18336;SDS011;9294;51.106;7.028;2023-10-08T12:37:54;10.35;;;7.90;;
18336;SDS011;9294;51.106;7.028;2023-10-08T12:40:22;11.15;;;7.18;;
18336;SDS011;9294;51.106;7.028;2023-10-08T12:42:49;12.30;;;7.72;;
18336;SDS011;9294;51.106;7.028;2023-10-08T12:45:17;12.85;;;7.57;;
18336;SDS011;9294;51.106;7.028;2023-10-08T12:47:47;10.18;;;6.80;;
18336;SDS011;9294;51.106;7.028;2023-10-08T12:50:16;11.25;;;7.47;;
18336;SDS011;9294;51.106;7.028;2023-10-08T12:52:49;10.48;;;6.68;;
18336;SDS011;9294;51.106;7.028;2023-10-08T12:55:20;11.20;;;7.38;;
18336;SDS011;9294;51.106;7.028;2023-10-08T12:57:49;9.50;;;6.38;;
18336;SDS011;9294;51.106;7.028;2023-10-08T13:00:20;10.88;;;7.07;;
18336;SDS011;9294;51.106;7.028;2023-10-08T13:02:48;9.15;;;6.50;;
18336;SDS011;9294;51.106;7.028;2023-10-08T13:05:19;8.70;;;6.97;;
18336;SDS011;9294;51.106;7.028;2023-10-08T13:07:53;8.02;;;6.45;;
18336;SDS011;9294;51.106;7.028;2023-10-08T13:10:20;8.48;;;6.40;;
18336;SDS011;9294;51.106;7.028;2023-10-08T13:12:47;8.93;;;6.75;;
18336;SDS011;9294;51.106;7.028;2023-10-08T13:15:15;8.73;;;6.65;;
18336;SDS011;9294;51.106;7.028;2023-10-08T13:17:42;7.97;;;6.47;;
18336;SDS011;9294;51.106;7.028;2023-10-08T13:20:10;8.77;;;6.50;;
18336;SDS011;9294;51.106;7.028;2023-10-08T13:22:39;7.47;;;6.70;;
18336;SDS011;9294;51.106;7.028;2023-10-08T13:25:08;9.55;;;6.13;;
18336;SDS011;9294;51.106;7.028;2023-10-08T13:27:36;7.00;;;6.30;;
18336;SDS011;9294;51.106;7.028;2023-10-08T13:30:05;7.55;;;6.18;;
18336;SDS011;9294;51.106;7.028;2023-10-08T13:32:33;8.02;;;6.53;;
18336;SDS011;9294;51.106;7.028;2023-10-08T13:35:01;9.55;;;6.70;;
18336;SDS011;9294;51.106;7.028;2023-10-08T13:37:29;7.47;;;6.28;;
18336;SDS011;9294;51.106;7.028;2023-10-08T13:39:57;8.40;;;7.45;;
18336;SDS011;9294;51.106;7.028;2023-10-08T13:42:24;10.13;;;6.80;;
18336;SDS011;9294;51.106;7.028;2023-10-08T13:44:52;10.52;;;7.00;;
18336;SDS011;9294;51.106;7.028;2023-10-08T13:47:19;11.23;;;7.30;;
18336;SDS011;9294;51.106;7.028;2023-10-08T13:49:50;9.57;;;6.80;;
18336;SDS011;9294;51.106;7.028;2023-10-08T13:52:17;6.10;;;5.50;;
18336;SDS011;9294;51.106;7.028;2023-10-08T13:54:45;6.45;;;5.85;;
18336;SDS011;9294;51.106;7.028;2023-10-08T13:57:18;5.65;;;5.15;;
18336;SDS011;9294;51.106;7.028;2023-10-08T13:59:46;8.65;;;6.28;;
18336;SDS011;9294;51.106;7.028;2023-10-08T14:02:13;7.28;;;6.53;;
18336;SDS011;9294;51.106;7.028;2023-10-08T14:04:40;10.13;;;6.90;;
18336;SDS011;9294;51.106;7.028;2023-10-08T14:07:08;10.23;;;6.63;;
18336;SDS011;9294;51.106;7.028;2023-10-08T14:09:36;7.18;;;6.00;;
18336;SDS011;9294;51.106;7.028;2023-10-08T14:12:07;7.88;;;6.07;;
18336;SDS011;9294;51.106;7.028;2023-10-08T14:14:36;7.10;;;5.57;;
18336;SDS011;9294;51.106;7.028;2023-10-08T14:17:08;7.05;;;5.85;;
18336;SDS011;9294;51.106;7.028;2023-10-08T14:19:40;8.82;;;6.22;;
18336;SDS011;9294;51.106;7.028;2023-10-08T14:22:11;6.85;;;6.20;;
18336;SDS011;9294;51.106;7.028;2023-10-08T14:24:40;7.55;;;5.95;;
18336;SDS011;9294;51.106;7.028;2023-10-08T14:27:09;8.65;;;5.93;;
18336;SDS011;9294;51.106;7.028;2023-10-08T14:29:38;8.25;;;7.03;;
18336;SDS011;9294;51.106;7.028;2023-10-08T14:32:09;8.40;;;5.45;;
18336;SDS011;9294;51.106;7.028;2023-10-08T14:34:36;6.85;;;5.97;;
18336;SDS011;9294;51.106;7.028;2023-10-08T14:37:21;7.57;;;5.63;;
18336;SDS011;9294;51.106;7.028;2023-10-08T14:40:06;9.02;;;6.28;;
18336;SDS011;9294;51.106;7.028;2023-10-08T14:42:51;9.43;;;6.25;;
18336;SDS011;9294;51.106;7.028;2023-10-08T14:45:23;9.25;;;5.82;;
18336;SDS011;9294;51.106;7.028;2023-10-08T14:47:52;6.82;;;6.15;;
18336;SDS011;9294;51.106;7.028;2023-10-08T14:50:19;9.07;;;6.30;;
18336;SDS011;9294;51.106;7.028;2023-10-08T14:52:47;7.35;;;6.25;;
18336;SDS011;9294;51.106;7.028;2023-10-08T14:55:14;11.20;;;6.35;;
18336;SDS011;9294;51.106;7.028;2023-10-08T14:57:41;11.20;;;6.80;;
18336;SDS011;9294;51.106;7.028;2023-10-08T15:00:09;9.82;;;5.90;;
18336;SDS011;9294;51.106;7.028;2023-10-08T15:02:38;7.15;;;6.45;;
18336;SDS011;9294;51.106;7.028;2023-10-08T15:05:05;7.68;;;5.57;;
18336;SDS011;9294;51.106;7.028;2023-10-08T15:07:32;7.95;;;6.28;;
18336;SDS011;9294;51.106;7.028;2023-10-08T15:10:01;7.25;;;5.82;;
18336;SDS011;9294;51.106;7.028;2023-10-08T15:12:28;6.45;;;5.85;;
18336;SDS011;9294;51.106;7.028;2023-10-08T15:14:59;8.18;;;6.40;;
18336;SDS011;9294;51.106;7.028;2023-10-08T15:17:38;6.68;;;5.60;;
18336;SDS011;9294;51.106;7.028;2023-10-08T15:20:06;6.82;;;5.68;;
18336;SDS011;9294;51.106;7.028;2023-10-08T15:22:36;6.13;;;5.47;;